createdAt,value
2024-03-06T05:00:55.631Z,11.00
2024-03-06T05:59:54.552Z,10.30
2024-03-06T06:02:26.251Z,8.87
2024-03-06T06:05:11.612Z,11.53
2024-03-06T06:07:51.092Z,9.50
2024-03-06T06:10:22.967Z,8.07
2024-03-06T06:12:55.070Z,8.93
2024-03-06T06:15:26.774Z,7.97
2024-03-06T06:17:58.533Z,7.23
2024-03-06T06:20:30.414Z,7.63
2024-03-06T06:23:03.761Z,8.13
2024-03-06T06:25:35.567Z,6.00
2024-03-06T06:28:07.315Z,9.00
2024-03-06T06:30:39.023Z,8.27
2024-03-06T06:33:10.943Z,8.30
2024-03-06T06:35:42.817Z,8.40
2024-03-06T06:38:15.942Z,11.17
2024-03-06T06:40:47.674Z,9.63
2024-03-06T06:43:19.556Z,7.20
2024-03-06T06:45:54.297Z,8.67
2024-03-06T06:48:26.290Z,8.03
2024-03-06T06:50:58.076Z,10.67
2024-03-06T06:53:31.182Z,9.03
2024-03-06T06:56:03.196Z,6.03
2024-03-06T06:58:34.931Z,5.63
2024-03-06T07:01:06.684Z,7.83
2024-03-06T07:03:38.397Z,7.90
2024-03-06T07:06:10.134Z,9.10
2024-03-06T07:08:43.247Z,8.00
2024-03-06T07:11:15.028Z,5.70
2024-03-06T07:13:46.774Z,5.90
2024-03-06T07:16:18.504Z,7.90
2024-03-06T07:18:50.240Z,7.23
2024-03-06T07:21:21.961Z,6.70
2024-03-06T07:23:55.032Z,6.10
2024-03-06T07:26:27.188Z,6.30
2024-03-06T07:28:58.997Z,6.18
2024-03-06T07:31:30.860Z,7.53
2024-03-06T07:34:02.635Z,6.20
2024-03-06T07:36:34.365Z,6.67
2024-03-06T07:39:07.517Z,4.57
2024-03-06T07:41:39.245Z,5.50
2024-03-06T07:44:11.056Z,7.50
2024-03-06T07:46:42.785Z,5.80
2024-03-06T07:49:14.502Z,7.07
2024-03-06T07:51:46.200Z,4.25
2024-03-06T07:54:19.313Z,6.03
2024-03-06T07:56:51.041Z,6.28
2024-03-06T07:59:22.791Z,5.45
2024-03-06T08:01:54.515Z,8.55
2024-03-06T08:04:26.217Z,13.05
2024-03-06T08:06:57.943Z,12.05
2024-03-06T08:09:31.014Z,7.97
2024-03-06T08:12:02.832Z,8.40
2024-03-06T08:14:34.594Z,7.70
2024-03-06T08:17:06.366Z,8.60
2024-03-06T08:19:38.082Z,6.33
2024-03-06T08:22:09.784Z,10.60
2024-03-06T08:24:42.832Z,9.55
2024-03-06T08:27:14.578Z,6.90
2024-03-06T08:29:46.361Z,8.77
2024-03-06T08:32:18.107Z,12.30
2024-03-06T08:34:49.846Z,11.47
2024-03-06T08:37:21.559Z,7.20
2024-03-06T08:39:54.633Z,9.93
2024-03-06T08:42:26.330Z,8.73
2024-03-06T08:44:58.106Z,13.30
2024-03-06T08:47:29.895Z,8.52
2024-03-06T08:50:01.660Z,9.80
2024-03-06T08:52:33.537Z,11.27
2024-03-06T08:55:07.897Z,9.47
2024-03-06T08:57:39.852Z,12.77
2024-03-06T09:00:12.923Z,12.93
2024-03-06T09:02:45.066Z,13.70
2024-03-06T09:05:16.991Z,12.23
2024-03-06T09:07:48.770Z,13.73
2024-03-06T09:10:21.815Z,13.73
2024-03-06T09:12:53.534Z,12.10
2024-03-06T09:15:25.422Z,13.57
2024-03-06T09:17:57.214Z,12.47
2024-03-06T09:20:29.025Z,12.57
2024-03-06T09:23:00.796Z,13.57
2024-03-06T09:25:34.020Z,10.27
2024-03-06T09:28:05.913Z,13.30
2024-03-06T09:30:37.679Z,15.80
2024-03-06T09:33:09.487Z,11.90
2024-03-06T09:35:41.267Z,15.80
2024-03-06T09:38:12.991Z,11.23
2024-03-06T09:40:46.084Z,15.67
2024-03-06T09:43:17.790Z,16.55
2024-03-06T09:45:49.771Z,15.17
2024-03-06T09:48:22.078Z,18.53
2024-03-06T09:50:53.834Z,16.53
2024-03-06T09:53:25.566Z,15.77
2024-03-06T09:55:59.080Z,20.60
2024-03-06T09:58:30.840Z,16.07
2024-03-06T10:01:03.154Z,17.90
2024-03-06T10:03:34.860Z,16.53
2024-03-06T10:06:09.817Z,15.87
2024-03-06T10:08:43.763Z,14.48
2024-03-06T10:11:16.951Z,18.43
2024-03-06T10:13:48.704Z,16.77
2024-03-06T10:16:20.392Z,16.17
2024-03-06T10:18:52.196Z,13.77
2024-03-06T10:21:30.987Z,14.40
2024-03-06T10:24:02.710Z,14.98
2024-03-06T10:26:35.792Z,13.17
2024-03-06T10:29:07.662Z,12.87
2024-03-06T10:31:39.425Z,14.07
2024-03-06T10:34:11.110Z,17.43
2024-03-06T10:36:43.336Z,14.87
2024-03-06T10:39:15.049Z,12.98
2024-03-06T10:41:48.199Z,12.57
2024-03-06T10:44:21.881Z,13.37
2024-03-06T10:46:56.908Z,17.13
2024-03-06T10:49:29.106Z,16.83
2024-03-06T10:52:00.974Z,16.47
2024-03-06T10:54:32.742Z,15.87
2024-03-06T10:57:05.945Z,18.20
2024-03-06T10:59:37.699Z,16.55
2024-03-06T11:02:09.614Z,16.17
2024-03-06T11:04:41.679Z,20.63
2024-03-06T11:07:15.795Z,22.88
2024-03-06T11:09:47.844Z,21.85
2024-03-06T11:12:37.121Z,21.60
2024-03-06T11:15:15.213Z,19.17
2024-03-06T11:17:47.025Z,22.10
2024-03-06T11:20:19.237Z,22.83
2024-03-06T11:23:03.942Z,22.92
2024-03-06T11:25:58.280Z,25.58
2024-03-06T11:28:31.463Z,22.55
2024-03-06T11:31:03.949Z,19.88
2024-03-06T11:33:36.258Z,22.27
2024-03-06T11:36:18.633Z,23.63
2024-03-06T11:38:53.599Z,20.30
2024-03-06T11:41:26.605Z,23.20
2024-03-06T11:44:00.976Z,21.08
2024-03-06T11:46:50.943Z,18.87
2024-03-06T11:49:23.207Z,21.13
2024-03-06T11:51:55.508Z,22.27
2024-03-06T11:54:27.366Z,24.75
2024-03-06T11:56:59.664Z,24.52
2024-03-06T11:59:33.458Z,24.87
2024-03-06T12:02:05.976Z,23.08
2024-03-06T12:04:37.748Z,22.08
2024-03-06T12:07:09.559Z,20.98
2024-03-06T12:09:43.209Z,24.20
2024-03-06T12:12:16.156Z,22.48
2024-03-06T12:14:58.485Z,23.15
2024-03-06T12:17:30.345Z,22.65
2024-03-06T12:20:02.196Z,19.00
2024-03-06T12:22:33.952Z,21.00
2024-03-06T12:25:06.636Z,21.43
2024-03-06T12:27:38.844Z,19.13
2024-03-06T12:30:12.570Z,17.50
2024-03-06T12:32:44.520Z,18.85
2024-03-06T12:35:25.135Z,21.80
2024-03-06T12:37:56.889Z,21.77
2024-03-06T12:40:28.576Z,21.00
2024-03-06T12:43:00.284Z,17.67
2024-03-06T12:45:33.672Z,18.70
2024-03-06T12:48:05.943Z,24.03
2024-03-06T12:50:37.800Z,19.60
2024-03-06T12:53:09.545Z,19.03
2024-03-06T12:55:41.251Z,16.58
2024-03-06T12:58:13.178Z,16.50
2024-03-06T13:00:46.285Z,15.13
2024-03-06T13:03:18.030Z,14.00
2024-03-06T13:05:49.829Z,15.77
2024-03-06T13:08:21.621Z,14.10
2024-03-06T13:10:53.367Z,13.27
2024-03-06T13:13:25.104Z,12.82
2024-03-06T13:15:58.576Z,11.82
2024-03-06T13:18:30.979Z,11.93
2024-03-06T13:21:02.722Z,9.85
2024-03-06T13:23:34.480Z,13.15
2024-03-06T13:26:06.209Z,10.20
2024-03-06T13:28:37.921Z,11.40
2024-03-06T13:31:10.980Z,13.20
2024-03-06T13:33:42.765Z,11.30
2024-03-06T13:36:14.487Z,13.45
2024-03-06T13:38:46.332Z,12.00
2024-03-06T13:41:18.191Z,9.60
2024-03-06T13:43:49.933Z,10.20
2024-03-06T13:46:23.003Z,10.20
2024-03-06T13:48:54.741Z,10.13
2024-03-06T13:51:26.425Z,10.25
2024-03-06T13:53:58.130Z,9.50
2024-03-06T13:56:29.850Z,10.65
2024-03-06T13:59:01.652Z,10.80
2024-03-06T14:01:34.770Z,11.10
2024-03-06T14:04:06.509Z,11.50
2024-03-06T14:06:38.213Z,9.23
2024-03-06T14:09:09.902Z,9.32
2024-03-06T14:11:41.720Z,11.23
2024-03-06T14:14:13.501Z,9.00
2024-03-06T14:16:46.572Z,10.48
2024-03-06T14:19:18.285Z,8.60
2024-03-06T14:21:49.996Z,9.30
2024-03-06T14:24:21.877Z,9.93
2024-03-06T14:26:53.655Z,9.05
2024-03-06T14:29:25.431Z,8.75
2024-03-06T14:31:58.533Z,9.10
2024-03-06T14:34:30.244Z,8.95
2024-03-06T14:37:02.015Z,8.48
2024-03-06T14:39:33.737Z,9.37
2024-03-06T14:42:05.781Z,8.13
2024-03-06T14:44:37.553Z,8.23
2024-03-06T14:47:10.682Z,7.15
2024-03-06T14:49:43.692Z,6.93
2024-03-06T14:52:15.387Z,7.75
2024-03-06T14:54:47.348Z,6.97
2024-03-06T14:57:19.054Z,6.90
2024-03-06T14:59:51.288Z,7.15
2024-03-06T15:02:24.491Z,6.90
2024-03-06T15:04:56.225Z,9.43
2024-03-06T15:07:27.948Z,6.45
2024-03-06T15:09:59.892Z,6.95
2024-03-06T15:12:31.642Z,9.48
2024-03-06T15:15:03.956Z,6.90
2024-03-06T15:17:37.196Z,6.78
2024-03-06T15:20:10.100Z,7.68
2024-03-06T15:22:41.899Z,9.65
2024-03-06T15:25:13.958Z,8.70
2024-03-06T15:27:45.701Z,6.45
2024-03-06T15:30:17.658Z,9.15
2024-03-06T15:32:50.785Z,13.18
2024-03-06T15:35:22.616Z,7.40
2024-03-06T15:37:54.305Z,12.07
2024-03-06T15:40:26.011Z,8.82
2024-03-06T15:42:57.962Z,6.78
2024-03-06T15:45:29.742Z,12.55
2024-03-06T15:48:06.529Z,11.30
2024-03-06T15:50:39.714Z,13.60
2024-03-06T15:53:11.554Z,14.80
2024-03-06T15:55:43.451Z,8.60
2024-03-06T15:58:15.153Z,12.05
2024-03-06T16:00:46.872Z,10.35
2024-03-06T16:03:21.028Z,11.68
2024-03-06T16:05:58.807Z,11.35
2024-03-06T16:08:34.478Z,10.60
2024-03-06T16:11:06.245Z,11.85
2024-03-06T16:13:38.230Z,11.63
2024-03-06T16:16:09.921Z,9.00
2024-03-06T16:18:43.044Z,11.48
2024-03-06T16:21:18.644Z,10.82
2024-03-06T16:23:50.430Z,16.90
2024-03-06T16:26:22.236Z,18.75
2024-03-06T16:28:54.012Z,15.48
2024-03-06T16:31:25.729Z,17.13
2024-03-06T16:33:59.071Z,20.00
2024-03-06T16:36:30.819Z,19.65
2024-03-06T16:39:02.567Z,18.20
2024-03-06T16:41:34.370Z,26.80
2024-03-06T16:44:06.094Z,25.77
2024-03-06T16:46:37.894Z,17.73
2024-03-06T16:49:10.970Z,23.80
2024-03-06T16:51:42.701Z,25.40
2024-03-06T16:54:14.482Z,29.33
2024-03-06T16:56:46.345Z,28.27
2024-03-06T16:59:18.219Z,23.40
2024-03-06T17:01:49.930Z,23.47
2024-03-06T17:04:23.093Z,25.87
2024-03-06T17:06:54.856Z,25.40
2024-03-06T17:09:26.590Z,25.90
2024-03-06T17:11:58.360Z,28.33
2024-03-06T17:14:31.983Z,24.37
2024-03-06T17:17:05.663Z,24.65
2024-03-06T17:19:38.773Z,25.40
2024-03-06T17:22:10.469Z,26.40
2024-03-06T17:24:42.296Z,25.73
2024-03-06T17:27:14.053Z,25.83
2024-03-06T17:29:45.887Z,24.67
2024-03-06T17:32:17.711Z,27.30
2024-03-06T17:34:50.827Z,28.67
2024-03-06T17:37:22.574Z,24.00
2024-03-06T17:39:54.266Z,25.63
2024-03-06T17:42:25.983Z,31.00
2024-03-06T17:44:57.739Z,27.50
2024-03-06T17:47:29.547Z,27.87
2024-03-06T17:50:02.636Z,26.75
2024-03-06T17:52:34.345Z,27.23
2024-03-06T17:55:06.453Z,22.50
2024-03-06T17:57:38.161Z,26.77
2024-03-06T18:00:11.191Z,30.27
2024-03-06T18:02:42.975Z,32.47
2024-03-06T18:05:16.158Z,28.83
2024-03-06T18:07:49.949Z,33.20
2024-03-06T18:10:22.562Z,34.53
2024-03-06T18:12:54.250Z,32.30
2024-03-06T18:15:25.965Z,37.90
2024-03-06T18:17:57.732Z,36.40
2024-03-06T18:20:30.963Z,37.00
2024-03-06T18:23:02.816Z,35.97
2024-03-06T18:25:34.543Z,36.87
2024-03-06T18:28:06.453Z,38.47
2024-03-06T18:30:38.173Z,41.40
2024-03-06T18:33:09.995Z,39.67
2024-03-06T18:35:43.293Z,37.17
2024-03-06T18:38:15.167Z,42.33
2024-03-06T18:40:47.036Z,42.20
2024-03-06T18:43:18.768Z,39.77
2024-03-06T18:45:50.463Z,39.37
2024-03-06T18:48:22.413Z,43.63
2024-03-06T18:50:55.613Z,41.40
2024-03-06T18:53:27.402Z,40.73
2024-03-06T18:55:59.241Z,42.70
2024-03-06T18:58:31.184Z,42.83
2024-03-06T19:01:02.950Z,39.00
2024-03-06T19:03:34.642Z,39.80
2024-03-06T19:06:08.294Z,41.23
2024-03-06T19:08:40.064Z,43.83
2024-03-06T19:11:11.935Z,43.20
2024-03-06T19:13:43.833Z,42.93
2024-03-06T19:16:15.603Z,47.40
2024-03-06T19:18:47.551Z,44.83
2024-03-06T19:21:20.679Z,57.20
2024-03-06T19:23:54.622Z,52.37
2024-03-06T19:26:26.469Z,49.00
2024-03-06T19:28:58.233Z,44.50
2024-03-06T19:31:31.923Z,44.85
2024-03-06T19:34:05.089Z,48.23
2024-03-06T19:36:38.344Z,42.83
2024-03-06T19:39:10.382Z,43.97
2024-03-06T19:41:42.457Z,39.57
2024-03-06T19:44:14.466Z,40.67
2024-03-06T19:46:46.353Z,48.73
2024-03-06T19:49:18.577Z,41.63
2024-03-06T19:51:51.794Z,42.13
2024-03-06T19:54:23.601Z,42.40
2024-03-06T19:56:55.471Z,39.43
2024-03-06T19:59:27.467Z,41.10
2024-03-06T20:01:59.205Z,42.83
2024-03-06T20:04:30.927Z,41.60
2024-03-06T20:07:04.361Z,38.33
2024-03-06T20:09:36.051Z,38.63
2024-03-06T20:12:08.454Z,41.93
2024-03-06T20:14:40.340Z,43.80
2024-03-06T20:17:12.355Z,41.17
2024-03-06T20:19:44.173Z,40.73
2024-03-06T20:22:17.208Z,42.47
2024-03-06T20:24:48.915Z,42.87
2024-03-06T20:27:20.667Z,40.03
2024-03-06T20:29:52.602Z,43.60
2024-03-06T20:32:24.438Z,38.17
2024-03-06T20:34:56.199Z,39.60
2024-03-06T20:37:29.218Z,41.20
2024-03-06T20:40:00.938Z,39.47
2024-03-06T20:42:32.655Z,40.37
2024-03-06T20:45:04.713Z,40.27
2024-03-06T20:47:36.499Z,40.10
2024-03-06T20:50:08.908Z,41.87
2024-03-06T20:52:42.158Z,45.27
2024-03-06T20:55:13.912Z,40.97
2024-03-06T20:57:45.630Z,39.33
2024-03-06T21:00:17.990Z,41.53
2024-03-06T21:02:49.853Z,40.20
2024-03-06T21:05:21.705Z,48.07
2024-03-06T21:07:54.763Z,45.33
2024-03-06T21:10:26.453Z,43.30
2024-03-06T21:12:58.144Z,45.67
2024-03-06T21:15:29.932Z,44.73
2024-03-06T21:18:01.792Z,45.97
2024-03-06T21:20:33.654Z,49.57
2024-03-06T21:23:06.739Z,41.00
2024-03-06T21:25:38.472Z,39.63
2024-03-06T21:28:10.182Z,52.97
2024-03-06T21:30:41.904Z,44.80
2024-03-06T21:33:13.868Z,44.73
2024-03-06T21:35:45.695Z,56.00
2024-03-06T21:38:18.775Z,51.53
2024-03-06T21:40:50.506Z,45.57
2024-03-06T21:43:22.233Z,44.20
2024-03-06T21:45:53.966Z,44.27
2024-03-06T21:48:25.691Z,42.70
2024-03-06T21:50:57.429Z,44.30
2024-03-06T21:53:30.531Z,46.70
2024-03-06T21:56:02.277Z,47.77
2024-03-06T21:58:34.008Z,41.20
2024-03-06T22:01:05.705Z,44.80
2024-03-06T22:03:37.424Z,44.07
2024-03-06T22:06:09.112Z,46.50
2024-03-06T22:08:42.547Z,46.90
2024-03-06T22:11:14.300Z,44.17
2024-03-06T22:13:46.076Z,49.73
2024-03-06T22:16:17.782Z,45.03
2024-03-06T22:18:49.481Z,46.50
2024-03-06T22:21:21.175Z,48.37
2024-03-06T22:23:54.224Z,47.10
2024-03-06T22:26:26.048Z,48.17
2024-03-06T22:28:57.826Z,45.43
2024-03-06T22:31:29.561Z,48.03
2024-03-06T22:34:01.246Z,48.80
2024-03-06T22:36:32.965Z,43.70
2024-03-06T22:39:06.031Z,44.27
2024-03-06T22:41:37.794Z,45.27
2024-03-06T22:44:09.568Z,46.47
2024-03-06T22:46:47.811Z,46.03
2024-03-06T22:49:23.426Z,45.50
2024-03-06T22:51:55.143Z,50.07
2024-03-06T22:54:28.202Z,49.93
2024-03-06T22:56:59.930Z,50.23
2024-03-06T22:59:31.718Z,46.03
